createdAt,value
2023-05-10T00:00:41.939Z,17.15
2023-05-10T00:03:09.720Z,17.03
2023-05-10T00:05:36.897Z,16.30
2023-05-10T00:08:04.229Z,16.71
2023-05-10T00:10:31.661Z,16.79
2023-05-10T00:12:58.815Z,17.40
2023-05-10T00:15:26.007Z,17.36
2023-05-10T00:17:53.498Z,17.00
2023-05-10T00:20:20.697Z,17.26
2023-05-10T00:22:47.857Z,18.54
2023-05-10T00:25:15.374Z,17.98
2023-05-10T00:27:42.581Z,17.34
2023-05-10T00:30:09.895Z,17.38
2023-05-10T00:32:37.392Z,17.79
2023-05-10T00:35:05.444Z,17.74
2023-05-10T00:37:33.026Z,17.23
2023-05-10T00:40:00.543Z,17.21
2023-05-10T00:42:27.748Z,17.53
2023-05-10T00:44:55.127Z,16.64
2023-05-10T00:47:22.944Z,16.22
2023-05-10T00:49:50.145Z,16.62
2023-05-10T00:52:17.298Z,16.39
2023-05-10T00:54:44.722Z,16.59
2023-05-10T00:57:11.947Z,16.75
2023-05-10T00:59:39.065Z,16.78
2023-05-10T01:02:06.557Z,16.85
2023-05-10T01:04:33.775Z,16.29
2023-05-10T01:07:00.982Z,16.34
2023-05-10T01:09:28.766Z,16.51
2023-05-10T01:11:56.450Z,16.67
2023-05-10T01:14:24.120Z,16.99
2023-05-10T01:16:51.934Z,17.07
2023-05-10T01:19:30.580Z,17.36
2023-05-10T01:22:14.058Z,18.22
2023-05-10T01:25:00.209Z,18.19
2023-05-10T01:27:34.764Z,18.00
2023-05-10T01:30:14.216Z,17.47
2023-05-10T01:32:43.355Z,17.61
2023-05-10T01:35:18.507Z,17.92
2023-05-10T01:37:49.447Z,17.84
2023-05-10T01:40:53.898Z,17.31
2023-05-10T01:43:25.730Z,17.68
2023-05-10T01:46:17.671Z,17.50
2023-05-10T01:48:49.245Z,17.64
2023-05-10T01:51:18.488Z,18.03
2023-05-10T01:53:47.456Z,17.67
2023-05-10T01:56:15.484Z,17.60
2023-05-10T01:58:46.588Z,17.18
2023-05-10T02:01:14.694Z,17.67
2023-05-10T02:03:44.048Z,17.22
2023-05-10T02:06:13.983Z,17.31
2023-05-10T02:08:42.277Z,17.36
2023-05-10T02:11:10.158Z,17.06
2023-05-10T02:13:40.393Z,17.02
2023-05-10T02:16:08.881Z,17.41
2023-05-10T02:18:37.711Z,17.10
2023-05-10T02:21:05.530Z,17.42
2023-05-10T02:23:33.125Z,17.99
2023-05-10T02:26:03.858Z,17.61
2023-05-10T02:28:32.205Z,17.32
2023-05-10T02:30:59.851Z,17.47
2023-05-10T02:33:28.628Z,17.19
2023-05-10T02:35:56.640Z,16.68
2023-05-10T02:38:24.369Z,16.24
2023-05-10T02:40:52.534Z,16.52
2023-05-10T02:43:20.116Z,16.48
2023-05-10T02:45:48.485Z,16.71
2023-05-10T02:48:17.063Z,16.66
2023-05-10T02:50:45.995Z,16.36
2023-05-10T02:53:17.541Z,16.79
2023-05-10T02:55:47.550Z,16.88
2023-05-10T02:58:15.037Z,17.08
2023-05-10T03:00:42.535Z,17.00
2023-05-10T03:03:10.211Z,16.57
2023-05-10T03:05:38.381Z,16.39
2023-05-10T03:08:06.109Z,16.17
2023-05-10T03:10:35.088Z,16.08
2023-05-10T03:13:14.207Z,16.44
2023-05-10T03:16:24.115Z,15.75
2023-05-10T03:19:08.391Z,15.09
2023-05-10T03:21:39.143Z,15.48
2023-05-10T03:24:09.333Z,15.39
2023-05-10T03:26:38.362Z,15.37
2023-05-10T03:29:07.476Z,15.90
2023-05-10T03:31:35.011Z,15.56
2023-05-10T03:34:02.753Z,15.32
2023-05-10T03:36:30.192Z,15.68
2023-05-10T03:38:57.684Z,15.48
2023-05-10T03:41:26.396Z,15.34
2023-05-10T03:43:54.089Z,14.66
2023-05-10T03:46:21.821Z,15.36
2023-05-10T03:48:49.846Z,15.18
2023-05-10T03:51:17.094Z,15.58
2023-05-10T03:53:44.453Z,15.72
2023-05-10T03:56:12.077Z,15.40
2023-05-10T03:58:39.429Z,15.51
2023-05-10T04:01:06.603Z,15.72
2023-05-10T04:03:34.305Z,15.88
2023-05-10T04:06:02.277Z,16.05
2023-05-10T04:08:30.035Z,15.36
2023-05-10T04:11:09.729Z,15.73
2023-05-10T04:13:36.920Z,15.66
2023-05-10T04:16:04.521Z,15.82
2023-05-10T04:18:32.141Z,15.57
2023-05-10T04:20:59.353Z,15.98
2023-05-10T04:23:28.013Z,16.14
2023-05-10T04:26:00.270Z,15.85
2023-05-10T04:28:28.256Z,15.85
2023-05-10T04:31:01.572Z,15.88
2023-05-10T04:33:29.018Z,16.20
2023-05-10T04:35:57.205Z,16.00
2023-05-10T04:38:24.369Z,16.24
2023-05-10T04:40:51.860Z,16.50
2023-05-10T04:43:19.055Z,16.82
2023-05-10T04:45:46.243Z,17.65
2023-05-10T04:48:14.063Z,17.06
2023-05-10T04:50:41.430Z,16.67
2023-05-10T04:53:08.814Z,17.68
2023-05-10T04:55:36.605Z,16.54
2023-05-10T04:58:03.995Z,17.82
2023-05-10T05:00:31.386Z,16.59
2023-05-10T05:02:59.102Z,17.57
2023-05-10T05:05:26.374Z,18.01
2023-05-10T05:07:53.584Z,16.85
2023-05-10T05:10:21.269Z,17.45
2023-05-10T05:12:48.616Z,17.70
2023-05-10T05:15:17.634Z,16.78
2023-05-10T05:17:45.059Z,17.25
2023-05-10T05:20:12.512Z,17.42
2023-05-10T05:22:39.823Z,18.20
2023-05-10T05:25:07.486Z,19.11
2023-05-10T05:27:34.601Z,18.95
2023-05-10T05:30:01.923Z,17.24
2023-05-10T05:32:29.750Z,16.48
2023-05-10T05:34:56.892Z,17.10
2023-05-10T05:37:25.406Z,16.06
2023-05-10T05:39:52.954Z,15.79
2023-05-10T05:42:20.428Z,16.20
2023-05-10T05:44:47.880Z,16.52
2023-05-10T05:47:15.591Z,17.47
2023-05-10T05:49:42.961Z,17.05
2023-05-10T05:52:10.338Z,16.54
2023-05-10T05:54:37.994Z,16.25
2023-05-10T05:57:05.462Z,15.78
2023-05-10T05:59:32.977Z,16.34
2023-05-10T06:02:01.671Z,17.51
2023-05-10T06:04:29.654Z,17.64
2023-05-10T06:06:57.194Z,17.13
2023-05-10T06:09:25.558Z,17.51
2023-05-10T06:11:53.273Z,17.31
2023-05-10T06:14:23.588Z,19.09
2023-05-10T06:16:51.119Z,18.90
2023-05-10T06:19:18.958Z,18.04
2023-05-10T06:21:46.347Z,18.22
2023-05-10T06:24:13.769Z,19.13
2023-05-10T06:26:41.426Z,19.66
2023-05-10T06:29:08.786Z,18.81
2023-05-10T06:31:36.281Z,19.16
2023-05-10T06:34:04.028Z,19.61
2023-05-10T06:36:31.761Z,19.30
2023-05-10T06:38:59.157Z,19.16
2023-05-10T06:41:26.779Z,18.31
2023-05-10T06:43:54.227Z,19.59
2023-05-10T06:46:21.682Z,18.37
2023-05-10T06:48:49.373Z,18.63
2023-05-10T06:51:16.781Z,19.59
2023-05-10T06:53:46.260Z,20.10
2023-05-10T06:56:13.901Z,20.36
2023-05-10T06:58:41.278Z,19.52
2023-05-10T07:01:09.339Z,18.44
2023-05-10T07:03:37.309Z,18.91
2023-05-10T07:06:06.467Z,19.83
2023-05-10T07:08:36.594Z,19.93
2023-05-10T07:11:05.559Z,19.48
2023-05-10T07:13:33.026Z,19.48
2023-05-10T07:16:03.029Z,20.67
2023-05-10T07:18:30.708Z,20.29
2023-05-10T07:20:58.791Z,20.42
2023-05-10T07:23:26.238Z,20.36
2023-05-10T07:25:54.454Z,20.69
2023-05-10T07:28:21.822Z,21.47
2023-05-10T07:30:49.317Z,22.14
2023-05-10T07:33:17.434Z,21.65
2023-05-10T07:35:44.929Z,22.96
2023-05-10T07:38:12.334Z,24.17
2023-05-10T07:40:40.549Z,24.77
2023-05-10T07:43:08.062Z,25.10
2023-05-10T07:45:35.582Z,24.62
2023-05-10T07:48:03.532Z,26.49
2023-05-10T07:50:30.959Z,25.91
2023-05-10T07:52:58.489Z,27.44
2023-05-10T07:55:26.166Z,27.22
2023-05-10T07:57:53.640Z,25.79
2023-05-10T08:00:21.526Z,25.72
2023-05-10T08:02:49.425Z,26.38
2023-05-10T08:05:17.136Z,26.52
2023-05-10T08:07:44.782Z,27.51
2023-05-10T08:10:13.649Z,28.33
2023-05-10T08:12:41.216Z,27.71
2023-05-10T08:15:09.467Z,27.21
2023-05-10T08:17:37.294Z,26.94
2023-05-10T08:20:05.210Z,26.66
2023-05-10T08:22:32.836Z,27.23
2023-05-10T08:25:01.064Z,28.35
2023-05-10T08:27:28.682Z,25.26
2023-05-10T08:29:56.101Z,26.43
2023-05-10T08:32:23.756Z,25.20
2023-05-10T08:34:51.002Z,25.04
2023-05-10T08:37:18.301Z,24.86
2023-05-10T08:39:48.902Z,26.11
2023-05-10T08:42:17.329Z,25.21
2023-05-10T08:44:44.523Z,25.46
2023-05-10T08:47:12.327Z,27.00
2023-05-10T08:49:39.752Z,27.24
2023-05-10T08:52:08.286Z,26.80
2023-05-10T08:54:36.100Z,27.10
2023-05-10T08:57:03.572Z,26.16
2023-05-10T08:59:30.763Z,25.75
2023-05-10T09:01:58.853Z,25.15
2023-05-10T09:04:26.497Z,26.67
2023-05-10T09:06:54.815Z,25.36
2023-05-10T09:09:22.706Z,27.13
2023-05-10T09:11:49.918Z,24.99
2023-05-10T09:14:17.256Z,23.87
2023-05-10T09:16:44.747Z,24.31
2023-05-10T09:19:12.032Z,25.45
2023-05-10T09:21:39.382Z,25.54
2023-05-10T09:24:07.379Z,24.04
2023-05-10T09:26:36.331Z,23.42
2023-05-10T09:29:04.024Z,24.53
2023-05-10T09:31:48.617Z,24.73
2023-05-10T09:34:24.088Z,24.79
2023-05-10T09:36:52.361Z,23.71
2023-05-10T09:39:19.660Z,23.43
2023-05-10T09:41:46.952Z,23.30
2023-05-10T09:44:18.769Z,24.41
2023-05-10T09:46:49.664Z,24.42
2023-05-10T09:49:17.078Z,23.68
2023-05-10T09:51:44.209Z,23.96
2023-05-10T09:54:12.025Z,24.88
2023-05-10T09:56:41.429Z,26.45
2023-05-10T09:59:10.354Z,25.52
2023-05-10T10:01:37.895Z,26.19
2023-05-10T10:04:05.993Z,26.28
2023-05-10T10:06:39.820Z,25.72
2023-05-10T10:09:07.733Z,25.90
2023-05-10T10:11:38.427Z,25.10
2023-05-10T10:14:05.970Z,26.41
2023-05-10T10:16:33.597Z,25.35
2023-05-10T10:19:01.010Z,26.33
2023-05-10T10:21:29.063Z,26.57
2023-05-10T10:23:57.015Z,25.92
2023-05-10T10:26:24.265Z,26.91
2023-05-10T10:28:53.291Z,26.63
2023-05-10T10:31:29.540Z,25.98
2023-05-10T10:33:58.162Z,25.97
2023-05-10T10:36:28.159Z,26.81
2023-05-10T10:39:00.250Z,26.04
2023-05-10T10:41:31.843Z,26.26
2023-05-10T10:44:18.106Z,25.55
2023-05-10T10:47:04.735Z,25.00
2023-05-10T10:49:33.588Z,25.51
2023-05-10T10:52:19.988Z,26.68
2023-05-10T10:55:07.726Z,26.57
2023-05-10T10:58:01.914Z,27.08
2023-05-10T11:00:33.222Z,26.21
2023-05-10T11:03:22.098Z,27.32
2023-05-10T11:05:49.889Z,26.09
2023-05-10T11:08:22.799Z,26.39
2023-05-10T11:10:53.800Z,25.34
2023-05-10T11:13:34.448Z,26.36
2023-05-10T11:16:15.046Z,25.63
2023-05-10T11:18:53.069Z,25.05
2023-05-10T11:21:20.440Z,26.82
2023-05-10T11:23:49.375Z,26.74
2023-05-10T11:26:16.713Z,27.33
2023-05-10T11:28:44.239Z,26.20
2023-05-10T11:31:13.547Z,26.02
2023-05-10T11:33:44.945Z,25.27
2023-05-10T11:36:16.990Z,25.59
2023-05-10T11:38:44.299Z,24.83
2023-05-10T11:41:12.578Z,24.67
2023-05-10T11:43:40.632Z,25.29
2023-05-10T11:46:08.418Z,25.53
2023-05-10T11:48:35.795Z,25.53
2023-05-10T11:51:03.613Z,25.63
2023-05-10T11:53:32.040Z,26.12
2023-05-10T11:56:06.460Z,25.31
2023-05-10T11:58:34.109Z,25.02
2023-05-10T12:01:01.317Z,25.94
2023-05-10T12:03:30.413Z,25.97
2023-05-10T12:05:57.889Z,25.40
2023-05-10T12:08:28.454Z,26.18
2023-05-10T12:11:04.979Z,25.80
2023-05-10T12:13:32.303Z,24.79
2023-05-10T12:15:59.853Z,25.86
2023-05-10T12:18:27.177Z,26.61
2023-05-10T12:20:57.259Z,26.12
2023-05-10T12:23:24.763Z,25.42
2023-05-10T12:25:54.968Z,26.26
2023-05-10T12:28:22.141Z,25.55
2023-05-10T12:30:49.518Z,25.19
2023-05-10T12:33:17.622Z,25.37
2023-05-10T12:35:45.662Z,25.45
2023-05-10T12:38:30.385Z,24.89
2023-05-10T12:40:58.230Z,25.79
2023-05-10T12:43:25.928Z,26.35
2023-05-10T12:45:53.409Z,26.52
2023-05-10T12:48:20.645Z,25.85
2023-05-10T12:50:48.464Z,25.75
2023-05-10T12:53:16.593Z,25.21
2023-05-10T12:55:44.132Z,24.48
2023-05-10T12:58:15.825Z,25.17
2023-05-10T13:00:48.245Z,25.29
2023-05-10T13:03:16.774Z,24.81
2023-05-10T13:05:44.049Z,24.38
2023-05-10T13:08:11.486Z,24.14
2023-05-10T13:10:38.986Z,23.72
2023-05-10T13:13:06.343Z,23.88
2023-05-10T13:15:33.496Z,23.85
2023-05-10T13:18:01.245Z,24.59
2023-05-10T13:20:28.729Z,24.42
2023-05-10T13:22:55.962Z,25.13
2023-05-10T13:25:23.475Z,25.75
2023-05-10T13:27:50.575Z,24.89
2023-05-10T13:30:17.927Z,24.27
2023-05-10T13:32:46.668Z,25.11
2023-05-10T13:35:13.884Z,24.70
2023-05-10T13:37:41.086Z,24.10
2023-05-10T13:40:08.780Z,25.30
2023-05-10T13:42:36.136Z,24.80
2023-05-10T13:45:03.264Z,25.69
2023-05-10T13:47:33.051Z,25.41
2023-05-10T13:50:00.238Z,25.79
2023-05-10T13:52:27.443Z,25.66
2023-05-10T13:54:56.249Z,26.14
2023-05-10T13:57:24.121Z,25.97
2023-05-10T13:59:51.475Z,25.61
2023-05-10T14:02:18.844Z,25.21
2023-05-10T14:04:46.428Z,25.65
2023-05-10T14:07:13.514Z,24.57
2023-05-10T14:09:40.674Z,24.85
2023-05-10T14:12:08.061Z,25.82
2023-05-10T14:14:35.637Z,25.90
2023-05-10T14:17:02.723Z,25.78
2023-05-10T14:19:33.393Z,25.88
2023-05-10T14:22:00.710Z,26.15
2023-05-10T14:24:27.820Z,26.18
2023-05-10T14:26:55.200Z,25.79
2023-05-10T14:29:23.004Z,26.03
2023-05-10T14:31:50.640Z,27.63
2023-05-10T14:34:18.170Z,26.20
2023-05-10T14:36:45.292Z,26.99
2023-05-10T14:39:14.326Z,26.73
2023-05-10T14:41:45.571Z,27.17
2023-05-10T14:44:12.772Z,27.61
2023-05-10T14:46:40.557Z,28.07
2023-05-10T14:49:08.082Z,27.11
2023-05-10T14:51:35.269Z,26.09
2023-05-10T14:54:03.370Z,25.43
2023-05-10T14:56:30.771Z,26.64
2023-05-10T14:58:57.921Z,26.31
2023-05-10T15:01:25.718Z,26.74
2023-05-10T15:03:53.821Z,27.68
2023-05-10T15:06:24.816Z,27.26
2023-05-10T15:08:52.572Z,26.30
2023-05-10T15:11:19.971Z,25.53
2023-05-10T15:13:47.050Z,24.74
2023-05-10T15:16:14.216Z,26.16
2023-05-10T15:18:41.695Z,25.94
2023-05-10T15:21:08.807Z,25.67
2023-05-10T15:23:35.940Z,26.11
2023-05-10T15:26:03.802Z,26.11
2023-05-10T15:28:32.422Z,26.23
2023-05-10T15:31:01.257Z,26.83
2023-05-10T15:33:28.721Z,25.73
2023-05-10T15:35:55.962Z,26.35
2023-05-10T15:38:23.553Z,25.06
2023-05-10T15:40:50.968Z,24.41
2023-05-10T15:43:18.352Z,24.93
2023-05-10T15:45:45.431Z,24.99
2023-05-10T15:48:12.820Z,24.25
2023-05-10T15:50:41.199Z,24.73
2023-05-10T15:53:08.372Z,24.42
2023-05-10T15:55:35.799Z,24.23
2023-05-10T15:58:03.129Z,24.93
2023-05-10T16:00:30.738Z,24.46
2023-05-10T16:02:58.038Z,24.53
2023-05-10T16:05:27.499Z,24.44
2023-05-10T16:07:55.211Z,24.34
2023-05-10T16:10:22.395Z,24.61
2023-05-10T16:12:49.889Z,24.66
2023-05-10T16:15:17.699Z,24.24
2023-05-10T16:17:45.104Z,23.91
2023-05-10T16:20:12.662Z,23.69
2023-05-10T16:22:39.851Z,23.02
2023-05-10T16:25:07.433Z,24.20
2023-05-10T16:27:35.158Z,23.43
2023-05-10T16:30:03.185Z,23.21
2023-05-10T16:32:31.624Z,23.86
2023-05-10T16:34:59.094Z,23.50
2023-05-10T16:37:26.679Z,23.14
2023-05-10T16:39:53.977Z,22.80
2023-05-10T16:42:21.695Z,24.07
2023-05-10T16:44:48.877Z,23.55
2023-05-10T16:47:16.107Z,23.74
2023-05-10T16:49:43.533Z,24.18
2023-05-10T16:52:11.375Z,23.70
2023-05-10T16:54:38.563Z,23.42
2023-05-10T16:57:06.368Z,24.18
2023-05-10T16:59:33.933Z,24.71
2023-05-10T17:02:01.160Z,24.46
2023-05-10T17:04:28.703Z,24.07
2023-05-10T17:06:55.861Z,24.06
2023-05-10T17:09:23.282Z,23.92
2023-05-10T17:11:50.738Z,23.71
2023-05-10T17:14:17.876Z,24.07
2023-05-10T17:16:45.084Z,23.91
2023-05-10T17:19:12.636Z,23.50
2023-05-10T17:21:39.830Z,24.13
2023-05-10T17:24:07.035Z,23.83
2023-05-10T17:26:34.665Z,22.52
2023-05-10T17:29:01.850Z,23.21
2023-05-10T17:31:29.891Z,22.91
2023-05-10T17:33:57.357Z,22.75
2023-05-10T17:36:24.692Z,22.07
2023-05-10T17:38:52.446Z,23.19
2023-05-10T17:41:20.427Z,23.00
2023-05-10T17:43:47.595Z,22.91
2023-05-10T17:46:14.923Z,23.42
2023-05-10T17:48:42.657Z,23.47
2023-05-10T17:51:11.306Z,23.72
2023-05-10T17:53:41.736Z,23.44
2023-05-10T17:56:09.674Z,23.20
2023-05-10T17:58:38.403Z,23.44
2023-05-10T18:01:05.892Z,23.53
2023-05-10T18:03:35.417Z,23.57
2023-05-10T18:06:03.353Z,23.52
2023-05-10T18:08:30.638Z,23.05
2023-05-10T18:10:58.107Z,23.09
2023-05-10T18:13:25.667Z,23.33
2023-05-10T18:15:53.244Z,22.42
2023-05-10T18:18:20.695Z,22.58
2023-05-10T18:20:47.975Z,21.86
2023-05-10T18:23:15.404Z,22.77
2023-05-10T18:25:42.916Z,22.13
2023-05-10T18:28:10.150Z,21.98
2023-05-10T18:30:37.339Z,22.24
2023-05-10T18:33:04.901Z,22.48
2023-05-10T18:35:32.095Z,22.93
2023-05-10T18:37:59.650Z,22.81
2023-05-10T18:40:27.957Z,22.94
2023-05-10T18:42:55.416Z,23.39
2023-05-10T18:45:22.761Z,22.76
2023-05-10T18:47:50.241Z,22.43
2023-05-10T18:50:17.712Z,22.31
2023-05-10T18:52:45.557Z,22.84
2023-05-10T18:55:13.001Z,22.80
2023-05-10T18:57:42.923Z,22.68
2023-05-10T19:00:11.043Z,22.43
2023-05-10T19:02:39.157Z,22.68
2023-05-10T19:05:06.958Z,22.70
2023-05-10T19:07:36.260Z,22.21
2023-05-10T19:10:04.440Z,22.62
2023-05-10T19:12:32.825Z,22.46
2023-05-10T19:15:00.518Z,22.53
2023-05-10T19:17:30.751Z,22.43
2023-05-10T19:19:59.564Z,22.75
2023-05-10T19:25:00.219Z,22.43
2023-05-10T19:27:27.388Z,22.30
2023-05-10T19:29:54.640Z,22.91
2023-05-10T19:32:25.608Z,22.70
2023-05-10T19:34:54.271Z,22.27
2023-05-10T19:37:26.342Z,22.34
2023-05-10T19:39:54.100Z,22.31
2023-05-10T19:42:24.806Z,22.30
2023-05-10T19:44:52.088Z,22.13
2023-05-10T19:47:19.253Z,22.07
2023-05-10T19:49:46.855Z,22.19
2023-05-10T19:52:14.343Z,22.43
2023-05-10T19:54:41.678Z,22.19
2023-05-10T19:57:11.312Z,22.61
2023-05-10T19:59:40.116Z,22.29
2023-05-10T20:02:07.654Z,22.34
2023-05-10T20:04:35.492Z,22.14
2023-05-10T20:07:02.830Z,21.73
2023-05-10T20:09:30.125Z,21.88
2023-05-10T20:11:57.553Z,21.99
2023-05-10T20:14:25.339Z,21.96
2023-05-10T20:16:52.849Z,21.88
2023-05-10T20:19:21.055Z,22.02
2023-05-10T20:21:48.821Z,22.09
2023-05-10T20:24:16.387Z,22.03
2023-05-10T20:26:44.935Z,21.84
2023-05-10T20:29:13.206Z,21.32
2023-05-10T20:31:40.519Z,21.65
2023-05-10T20:34:08.001Z,21.86
2023-05-10T20:36:35.112Z,22.00
2023-05-10T20:39:02.249Z,21.67
2023-05-10T20:41:30.121Z,21.62
2023-05-10T20:44:00.678Z,21.63
2023-05-10T20:46:31.506Z,21.63
2023-05-10T20:48:59.534Z,22.05
2023-05-10T20:51:27.080Z,21.77
2023-05-10T20:53:54.180Z,21.55
2023-05-10T20:56:21.832Z,21.38
2023-05-10T20:58:48.968Z,21.90
2023-05-10T21:01:16.230Z,21.70
2023-05-10T21:03:43.661Z,21.49
2023-05-10T21:06:10.783Z,21.57
2023-05-10T21:08:37.969Z,21.39
2023-05-10T21:11:05.771Z,21.35
2023-05-10T21:13:33.032Z,21.40
2023-05-10T21:16:00.465Z,21.59
2023-05-10T21:18:28.278Z,21.58
2023-05-10T21:20:55.676Z,21.21
2023-05-10T21:23:22.866Z,21.35
2023-05-10T21:25:50.274Z,21.32
2023-05-10T21:28:17.600Z,20.92
2023-05-10T21:30:44.743Z,21.49
2023-05-10T21:33:12.964Z,21.70
2023-05-10T21:35:42.893Z,21.52
2023-05-10T21:38:10.477Z,21.16
2023-05-10T21:40:38.332Z,21.11
2023-05-10T21:43:06.420Z,21.31
2023-05-10T21:45:33.908Z,21.37
2023-05-10T21:48:01.735Z,21.70
2023-05-10T21:50:29.073Z,21.25
2023-05-10T21:52:56.638Z,21.00
2023-05-10T21:55:24.164Z,20.89
2023-05-10T21:57:51.307Z,21.36
2023-05-10T22:00:19.720Z,21.25
2023-05-10T22:02:47.562Z,20.94
2023-05-10T22:05:14.866Z,20.42
2023-05-10T22:07:42.054Z,20.61
2023-05-10T22:10:09.749Z,20.35
2023-05-10T22:12:36.908Z,21.05
2023-05-10T22:17:34.714Z,21.64
2023-05-10T22:20:01.857Z,21.63
2023-05-10T22:22:29.059Z,21.49
2023-05-10T22:24:56.521Z,21.02
2023-05-10T22:27:23.669Z,20.79
2023-05-10T22:29:50.992Z,20.78
2023-05-10T22:32:18.521Z,21.35
2023-05-10T22:34:45.646Z,20.92
2023-05-10T22:37:14.885Z,21.30
2023-05-10T22:39:42.390Z,21.09
2023-05-10T22:42:09.565Z,21.46
2023-05-10T22:44:36.714Z,21.69
2023-05-10T22:47:06.522Z,21.69
2023-05-10T22:49:33.799Z,21.85
2023-05-10T22:52:01.813Z,21.92
2023-05-10T22:54:29.392Z,21.39
2023-05-10T22:56:56.545Z,20.88
2023-05-10T22:59:23.758Z,20.84
2023-05-10T23:01:51.292Z,20.04
2023-05-10T23:04:18.557Z,20.00
2023-05-10T23:06:46.561Z,20.19
2023-05-10T23:09:13.960Z,20.37
2023-05-10T23:11:41.236Z,21.35
2023-05-10T23:14:08.379Z,20.80
2023-05-10T23:16:35.888Z,21.42
2023-05-10T23:19:03.185Z,21.30
2023-05-10T23:21:32.217Z,20.27
2023-05-10T23:23:59.873Z,20.75
2023-05-10T23:26:27.011Z,20.69
2023-05-10T23:28:54.186Z,21.10
2023-05-10T23:31:21.678Z,20.78
2023-05-10T23:33:48.880Z,21.33
2023-05-10T23:36:17.107Z,21.36
2023-05-10T23:38:44.570Z,20.85
2023-05-10T23:41:12.329Z,20.42
2023-05-10T23:43:39.454Z,19.97
2023-05-10T23:46:07.125Z,20.01
2023-05-10T23:48:34.412Z,20.16
2023-05-10T23:51:01.590Z,19.93
2023-05-10T23:53:29.066Z,19.83
2023-05-10T23:55:57.767Z,20.80
2023-05-10T23:58:24.998Z,20.16
